createdAt,value
2019-05-11T00:00:10.510Z,9.06
2019-05-11T00:02:37.620Z,8.97
2019-05-11T00:05:04.560Z,8.88
2019-05-11T00:07:31.455Z,8.84
2019-05-11T00:09:58.768Z,8.73
2019-05-11T00:12:26.126Z,8.64
2019-05-11T00:14:52.997Z,8.61
2019-05-11T00:17:20.310Z,8.58
2019-05-11T00:19:47.147Z,8.66
2019-05-11T00:22:14.318Z,8.64
2019-05-11T00:24:41.456Z,8.62
2019-05-11T00:27:08.368Z,8.62
2019-05-11T00:29:35.257Z,8.56
2019-05-11T00:32:02.129Z,8.56
2019-05-11T00:34:29.122Z,8.63
2019-05-11T00:36:55.899Z,8.72
2019-05-11T00:39:23.422Z,8.74
2019-05-11T00:41:50.497Z,8.68
2019-05-11T00:44:17.265Z,8.76
2019-05-11T00:46:44.480Z,8.74
2019-05-11T00:49:12.283Z,8.84
2019-05-11T00:51:39.366Z,8.77
2019-05-11T00:54:06.209Z,8.79
2019-05-11T00:56:32.971Z,8.98
2019-05-11T00:59:00.074Z,8.89
2019-05-11T01:01:26.867Z,8.99
2019-05-11T01:03:54.093Z,9.03
2019-05-11T01:06:20.928Z,8.88
2019-05-11T01:08:47.986Z,8.89
2019-05-11T01:11:15.096Z,8.85
2019-05-11T01:13:41.909Z,8.85
2019-05-11T01:16:09.001Z,8.85
2019-05-11T01:18:35.919Z,8.96
2019-05-11T01:21:02.817Z,8.78
2019-05-11T01:23:29.669Z,8.76
2019-05-11T01:25:56.806Z,8.73
2019-05-11T01:28:23.725Z,8.57
2019-05-11T01:30:51.004Z,8.44
2019-05-11T01:33:17.896Z,8.41
2019-05-11T01:35:45.097Z,8.31
2019-05-11T01:38:12.111Z,8.20
2019-05-11T01:40:38.997Z,8.12
2019-05-11T01:43:05.883Z,8.08
2019-05-11T01:45:33.173Z,8.09
2019-05-11T01:48:00.546Z,8.09
2019-05-11T01:50:27.541Z,8.10
2019-05-11T01:52:54.361Z,8.21
2019-05-11T01:55:21.162Z,8.18
2019-05-11T01:57:48.077Z,8.18
2019-05-11T02:00:14.994Z,8.21
2019-05-11T02:02:41.908Z,8.19
2019-05-11T02:05:26.884Z,8.20
2019-05-11T02:07:54.005Z,8.14
2019-05-11T02:10:20.882Z,8.13
2019-05-11T02:12:48.170Z,8.05
2019-05-11T02:15:15.177Z,8.00
2019-05-11T02:17:42.041Z,7.99
2019-05-11T02:20:09.279Z,7.89
2019-05-11T02:22:36.211Z,7.83
2019-05-11T02:25:03.709Z,7.73
2019-05-11T02:27:30.678Z,7.75
2019-05-11T02:29:57.466Z,7.71
2019-05-11T02:32:24.237Z,7.64
2019-05-11T02:34:51.187Z,7.60
2019-05-11T02:37:17.963Z,7.56
2019-05-11T02:39:44.850Z,7.53
2019-05-11T02:42:11.780Z,7.46
2019-05-11T02:44:38.578Z,7.49
2019-05-11T02:47:05.514Z,7.45
2019-05-11T02:49:32.398Z,7.44
2019-05-11T02:52:00.229Z,7.41
2019-05-11T02:54:27.337Z,7.38
2019-05-11T02:56:54.287Z,7.36
2019-05-11T02:59:21.137Z,7.35
2019-05-11T03:01:47.967Z,7.32
2019-05-11T03:04:14.779Z,7.34
2019-05-11T03:06:41.664Z,7.33
2019-05-11T03:09:08.602Z,7.29
2019-05-11T03:11:53.666Z,7.33
2019-05-11T03:14:04.267Z,7.33
2019-05-11T03:16:31.343Z,7.33
2019-05-11T03:18:58.603Z,7.38
2019-05-11T03:21:25.444Z,7.42
2019-05-11T03:23:52.247Z,7.43
2019-05-11T03:26:19.116Z,7.48
2019-05-11T03:28:46.117Z,7.53
2019-05-11T03:31:13.004Z,7.70
2019-05-11T03:33:39.954Z,7.90
2019-05-11T03:36:08.025Z,8.02
2019-05-11T03:38:34.952Z,8.21
2019-05-11T03:41:01.872Z,8.23
2019-05-11T03:43:28.741Z,8.34
2019-05-11T03:45:55.625Z,8.38
2019-05-11T03:48:22.564Z,8.40
2019-05-11T03:50:49.482Z,7.98
2019-05-11T03:53:16.555Z,8.17
2019-05-11T03:55:43.373Z,8.27
2019-05-11T03:58:10.241Z,8.30
2019-05-11T04:00:44.312Z,8.33
2019-05-11T04:03:11.174Z,8.46
2019-05-11T04:05:37.960Z,8.49
2019-05-11T04:08:04.892Z,8.54
2019-05-11T04:10:31.747Z,8.61
2019-05-11T04:12:58.844Z,8.65
2019-05-11T04:15:26.024Z,8.73
2019-05-11T04:17:52.906Z,8.83
2019-05-11T04:20:20.127Z,8.88
2019-05-11T04:22:46.990Z,8.89
2019-05-11T04:25:14.374Z,8.91
2019-05-11T04:27:41.144Z,8.68
2019-05-11T04:30:08.743Z,8.69
2019-05-11T04:32:35.655Z,8.77
2019-05-11T04:35:06.699Z,8.89
2019-05-11T04:37:33.893Z,9.01
2019-05-11T04:40:00.656Z,9.12
2019-05-11T04:42:28.047Z,9.24
2019-05-11T04:44:54.918Z,9.18
2019-05-11T04:47:21.834Z,9.28
2019-05-11T04:49:48.776Z,9.40
2019-05-11T04:52:15.573Z,9.42
2019-05-11T04:54:42.975Z,9.42
2019-05-11T04:57:09.908Z,9.59
2019-05-11T04:59:36.806Z,9.58
2019-05-11T05:02:03.659Z,9.70
2019-05-11T05:04:30.496Z,9.73
2019-05-11T05:06:59.994Z,9.60
2019-05-11T05:09:26.362Z,9.76
2019-05-11T05:11:53.327Z,9.74
2019-05-11T05:14:20.411Z,9.75
2019-05-11T05:16:47.638Z,9.73
2019-05-11T05:19:16.010Z,9.92
2019-05-11T05:21:42.978Z,9.93
2019-05-11T05:24:09.728Z,9.80
2019-05-11T05:26:36.992Z,9.81
2019-05-11T05:29:05.780Z,9.83
2019-05-11T05:31:33.745Z,9.86
2019-05-11T05:34:01.614Z,9.93
2019-05-11T05:36:28.534Z,10.25
2019-05-11T05:38:55.286Z,10.41
2019-05-11T05:41:23.947Z,10.59
2019-05-11T05:43:50.641Z,10.57
2019-05-11T05:46:17.689Z,10.44
2019-05-11T05:48:44.441Z,10.64
2019-05-11T05:51:13.063Z,10.90
2019-05-11T05:53:41.020Z,10.83
2019-05-11T05:56:11.871Z,11.02
2019-05-11T05:58:39.619Z,11.07
2019-05-11T06:01:09.911Z,11.27
2019-05-11T06:03:35.624Z,11.33
2019-05-11T06:06:02.590Z,11.32
2019-05-11T06:08:29.495Z,11.48
2019-05-11T06:10:56.559Z,11.71
2019-05-11T06:13:23.393Z,11.55
2019-05-11T06:15:50.026Z,11.75
2019-05-11T06:18:17.105Z,11.96
2019-05-11T06:20:44.315Z,11.96
2019-05-11T06:23:11.012Z,12.02
2019-05-11T06:25:37.920Z,12.18
2019-05-11T06:28:04.694Z,12.33
2019-05-11T06:30:31.557Z,12.33
2019-05-11T06:32:58.396Z,12.37
2019-05-11T06:35:25.321Z,12.19
2019-05-11T06:37:52.209Z,12.55
2019-05-11T06:40:19.235Z,12.82
2019-05-11T06:42:46.219Z,12.84
2019-05-11T06:45:13.133Z,12.80
2019-05-11T06:47:40.318Z,12.91
2019-05-11T06:50:07.150Z,12.82
2019-05-11T06:52:34.081Z,13.02
2019-05-11T06:55:00.871Z,13.18
2019-05-11T06:57:27.992Z,13.42
2019-05-11T06:59:55.277Z,13.79
2019-05-11T07:02:22.080Z,13.95
2019-05-11T07:04:48.856Z,14.18
2019-05-11T07:07:15.787Z,14.31
2019-05-11T07:09:42.538Z,14.34
2019-05-11T07:12:09.430Z,14.29
2019-05-11T07:14:36.284Z,14.52
2019-05-11T07:17:03.025Z,14.38
2019-05-11T07:19:29.905Z,14.52
2019-05-11T07:21:56.641Z,14.19
2019-05-11T07:24:23.328Z,14.05
2019-05-11T07:26:50.229Z,14.31
2019-05-11T07:29:17.217Z,14.34
2019-05-11T07:31:44.066Z,14.94
2019-05-11T07:34:10.809Z,15.11
2019-05-11T07:36:38.807Z,14.82
2019-05-11T07:39:08.134Z,14.59
2019-05-11T07:41:34.709Z,14.96
2019-05-11T07:44:04.325Z,15.16
2019-05-11T07:46:31.549Z,15.30
2019-05-11T07:48:58.742Z,15.36
2019-05-11T07:51:26.445Z,15.85
2019-05-11T07:53:54.683Z,15.05
2019-05-11T07:56:31.823Z,15.21
2019-05-11T07:59:29.190Z,14.90
2019-05-11T08:02:09.931Z,14.69
2019-05-11T08:04:37.865Z,14.58
2019-05-11T08:07:07.544Z,14.51
2019-05-11T08:09:34.065Z,14.56
2019-05-11T08:12:00.804Z,14.61
2019-05-11T08:14:28.777Z,15.48
2019-05-11T08:16:59.195Z,15.74
2019-05-11T08:19:28.096Z,15.92
2019-05-11T08:21:54.931Z,16.11
2019-05-11T08:24:21.815Z,16.22
2019-05-11T08:26:48.709Z,15.80
2019-05-11T08:29:18.408Z,15.70
2019-05-11T08:31:44.909Z,15.56
2019-05-11T08:34:11.698Z,15.36
2019-05-11T08:36:38.869Z,15.69
2019-05-11T08:39:07.701Z,16.33
2019-05-11T08:41:35.348Z,16.58
2019-05-11T08:44:02.404Z,16.81
2019-05-11T08:46:29.295Z,16.72
2019-05-11T08:48:56.433Z,17.32
2019-05-11T08:51:23.617Z,16.85
2019-05-11T08:53:50.370Z,17.29
2019-05-11T08:56:18.933Z,16.45
2019-05-11T08:58:45.845Z,16.09
2019-05-11T09:01:12.697Z,16.06
2019-05-11T09:03:39.345Z,15.83
2019-05-11T09:06:08.371Z,16.12
2019-05-11T09:08:35.017Z,16.48
2019-05-11T09:11:01.928Z,16.86
2019-05-11T09:13:28.827Z,15.82
2019-05-11T09:15:55.720Z,16.17
2019-05-11T09:18:22.520Z,15.93
2019-05-11T09:20:49.272Z,16.21
2019-05-11T09:23:32.477Z,16.36
2019-05-11T09:25:47.561Z,16.44
2019-05-11T09:28:14.033Z,15.79
2019-05-11T09:30:40.802Z,15.89
2019-05-11T09:33:08.619Z,16.27
2019-05-11T09:35:49.298Z,17.01
2019-05-11T09:38:04.520Z,17.31
2019-05-11T09:40:31.345Z,17.81
2019-05-11T09:42:58.641Z,17.16
2019-05-11T09:45:27.665Z,16.63
2019-05-11T09:47:54.232Z,16.96
2019-05-11T09:50:20.978Z,17.06
2019-05-11T09:52:48.990Z,16.86
2019-05-11T09:55:18.796Z,16.59
2019-05-11T09:57:45.405Z,16.16
2019-05-11T10:00:13.174Z,17.02
2019-05-11T10:02:40.166Z,16.62
2019-05-11T10:05:08.396Z,17.03
2019-05-11T10:07:37.810Z,16.68
2019-05-11T10:10:04.433Z,16.12
2019-05-11T10:12:31.179Z,16.38
2019-05-11T10:14:59.129Z,15.79
2019-05-11T10:17:26.147Z,16.11
2019-05-11T10:19:53.042Z,16.21
2019-05-11T10:22:19.844Z,16.55
2019-05-11T10:24:47.735Z,16.66
2019-05-11T10:27:14.623Z,16.98
2019-05-11T10:29:41.353Z,17.35
2019-05-11T10:32:08.165Z,17.74
2019-05-11T10:34:35.177Z,17.68
2019-05-11T10:37:01.968Z,17.70
2019-05-11T10:39:28.701Z,17.76
2019-05-11T10:41:58.104Z,17.09
2019-05-11T10:44:24.443Z,17.22
2019-05-11T10:46:51.608Z,16.56
2019-05-11T10:49:18.657Z,17.49
2019-05-11T10:51:45.558Z,17.23
2019-05-11T10:54:12.481Z,17.61
2019-05-11T10:56:40.012Z,17.42
2019-05-11T10:59:08.001Z,17.55
2019-05-11T11:01:37.850Z,17.25
2019-05-11T11:04:04.411Z,17.20
2019-05-11T11:06:31.412Z,17.38
2019-05-11T11:08:58.826Z,17.08
2019-05-11T11:11:27.836Z,17.33
2019-05-11T11:13:55.341Z,17.54
2019-05-11T11:16:35.652Z,17.87
2019-05-11T11:18:51.264Z,17.36
2019-05-11T11:21:22.654Z,17.75
2019-05-11T11:23:48.000Z,17.98
2019-05-11T11:26:21.115Z,18.08
2019-05-11T11:28:48.327Z,18.08
2019-05-11T11:31:15.275Z,17.75
2019-05-11T11:33:42.216Z,17.91
2019-05-11T11:36:08.971Z,17.90
2019-05-11T11:38:37.591Z,17.55
2019-05-11T11:41:04.721Z,17.19
2019-05-11T11:43:31.672Z,16.77
2019-05-11T11:45:58.451Z,16.87
2019-05-11T11:48:25.215Z,16.85
2019-05-11T11:50:52.017Z,16.08
2019-05-11T11:53:18.950Z,16.08
2019-05-11T11:55:48.024Z,16.53
2019-05-11T11:58:14.552Z,16.65
2019-05-11T12:00:41.548Z,16.62
2019-05-11T12:03:09.434Z,16.81
2019-05-11T12:05:38.614Z,16.99
2019-05-11T12:08:08.129Z,17.10
2019-05-11T12:10:34.774Z,17.12
2019-05-11T12:13:01.757Z,17.08
2019-05-11T12:15:28.491Z,17.29
2019-05-11T12:17:55.678Z,17.05
2019-05-11T12:20:22.692Z,17.19
2019-05-11T12:22:49.881Z,17.32
2019-05-11T12:25:18.615Z,17.27
2019-05-11T12:27:48.729Z,17.26
2019-05-11T12:30:14.876Z,17.11
2019-05-11T12:32:48.701Z,16.93
2019-05-11T12:35:17.803Z,16.67
2019-05-11T12:37:44.762Z,16.57
2019-05-11T12:40:12.420Z,16.62
2019-05-11T12:42:39.274Z,16.47
2019-05-11T12:45:07.572Z,16.21
2019-05-11T12:47:34.565Z,15.75
2019-05-11T12:50:01.669Z,16.09
2019-05-11T12:52:28.554Z,16.09
2019-05-11T12:54:55.445Z,16.03
2019-05-11T12:57:22.364Z,16.12
2019-05-11T12:59:49.136Z,16.08
2019-05-11T13:02:18.444Z,16.06
2019-05-11T13:04:47.577Z,16.05
2019-05-11T13:07:16.705Z,16.07
2019-05-11T13:09:43.969Z,16.00
2019-05-11T13:12:11.199Z,15.65
2019-05-11T13:14:38.265Z,15.65
2019-05-11T13:17:05.122Z,15.53
2019-05-11T13:19:31.953Z,15.26
2019-05-11T13:22:00.781Z,14.94
2019-05-11T13:24:28.192Z,14.75
2019-05-11T13:26:55.483Z,14.60
2019-05-11T13:29:22.788Z,14.56
2019-05-11T13:31:49.689Z,14.73
2019-05-11T13:36:43.620Z,14.85
2019-05-11T13:39:10.798Z,14.76
2019-05-11T13:41:38.393Z,14.88
2019-05-11T13:44:05.393Z,14.91
2019-05-11T13:46:32.610Z,14.97
2019-05-11T13:48:59.403Z,14.75
2019-05-11T13:51:28.383Z,14.79
2019-05-11T13:53:55.035Z,14.74
2019-05-11T13:56:21.797Z,14.83
2019-05-11T13:58:48.980Z,14.87
2019-05-11T14:01:18.167Z,14.89
2019-05-11T14:03:45.128Z,15.03
2019-05-11T14:06:12.937Z,15.03
2019-05-11T14:08:40.844Z,15.13
2019-05-11T14:11:17.898Z,15.24
2019-05-11T14:13:50.978Z,14.99
2019-05-11T14:16:18.784Z,15.13
2019-05-11T14:18:49.836Z,15.11
2019-05-11T14:21:18.680Z,14.90
2019-05-11T14:23:48.416Z,14.67
2019-05-11T14:26:19.973Z,14.61
2019-05-11T14:28:49.383Z,14.61
2019-05-11T14:31:28.240Z,14.43
2019-05-11T14:33:59.873Z,14.24
2019-05-11T14:36:38.850Z,14.25
2019-05-11T14:39:08.887Z,14.20
2019-05-11T14:41:38.012Z,14.18
2019-05-11T14:44:10.577Z,14.03
2019-05-11T14:46:40.457Z,14.00
2019-05-11T14:49:08.746Z,13.89
2019-05-11T14:51:42.860Z,13.85
2019-05-11T14:54:13.551Z,13.78
2019-05-11T14:56:44.760Z,13.78
2019-05-11T14:59:23.821Z,13.78
2019-05-11T15:01:54.210Z,13.77
2019-05-11T15:04:28.809Z,13.70
2019-05-11T15:06:57.944Z,13.76
2019-05-11T15:09:28.346Z,13.78
2019-05-11T15:11:57.724Z,13.89
2019-05-11T15:14:28.896Z,14.03
2019-05-11T15:16:57.641Z,13.88
2019-05-11T15:19:25.249Z,13.80
2019-05-11T15:21:52.840Z,13.77
2019-05-11T15:24:19.949Z,13.84
2019-05-11T15:26:48.650Z,13.95
2019-05-11T15:29:17.963Z,13.95
2019-05-11T15:31:44.972Z,13.82
2019-05-11T15:34:12.050Z,13.80
2019-05-11T15:36:39.848Z,13.82
2019-05-11T15:39:07.930Z,13.83
2019-05-11T15:41:35.081Z,13.75
2019-05-11T15:44:02.179Z,13.67
2019-05-11T15:46:29.549Z,13.60
2019-05-11T15:49:03.069Z,13.47
2019-05-11T15:51:26.048Z,13.45
2019-05-11T15:53:53.344Z,13.41
2019-05-11T15:56:20.431Z,13.45
2019-05-11T15:58:48.776Z,13.26
2019-05-11T16:01:18.465Z,13.32
2019-05-11T16:03:44.999Z,13.30
2019-05-11T16:06:12.348Z,13.35
2019-05-11T16:08:39.899Z,13.34
2019-05-11T16:11:08.341Z,13.27
2019-05-11T16:13:37.805Z,13.16
2019-05-11T16:16:05.537Z,13.12
2019-05-11T16:18:32.810Z,13.08
2019-05-11T16:21:03.242Z,13.04
2019-05-11T16:23:30.893Z,13.03
2019-05-11T16:25:58.466Z,13.06
2019-05-11T16:28:30.184Z,12.97
2019-05-11T16:30:55.211Z,13.03
2019-05-11T16:33:22.691Z,12.94
2019-05-11T16:35:50.182Z,12.83
2019-05-11T16:38:18.758Z,12.85
2019-05-11T16:40:48.027Z,12.93
2019-05-11T16:43:15.730Z,12.96
2019-05-11T16:45:43.182Z,12.97
2019-05-11T16:48:10.437Z,13.00
2019-05-11T16:50:38.457Z,13.02
2019-05-11T16:53:05.677Z,13.00
2019-05-11T16:55:32.803Z,13.00
2019-05-11T16:57:59.896Z,12.95
2019-05-11T17:00:27.382Z,12.99
2019-05-11T17:02:54.471Z,13.03
2019-05-11T17:05:26.963Z,12.98
2019-05-11T17:07:50.543Z,12.92
2019-05-11T17:10:18.237Z,12.87
2019-05-11T17:12:48.327Z,12.86
2019-05-11T17:15:18.411Z,12.83
2019-05-11T17:17:45.495Z,12.69
2019-05-11T17:20:13.107Z,12.69
2019-05-11T17:22:40.374Z,12.67
2019-05-11T17:25:08.659Z,12.57
2019-05-11T17:27:37.702Z,12.52
2019-05-11T17:30:08.616Z,12.55
2019-05-11T17:32:38.209Z,12.53
2019-05-11T17:35:05.414Z,12.33
2019-05-11T17:37:32.530Z,12.32
2019-05-11T17:39:59.772Z,12.19
2019-05-11T17:42:26.988Z,12.18
2019-05-11T17:44:54.436Z,12.12
2019-05-11T17:47:23.715Z,12.01
2019-05-11T17:49:59.557Z,11.95
2019-05-11T17:52:19.704Z,11.91
2019-05-11T17:54:47.809Z,11.98
2019-05-11T17:57:15.043Z,11.99
2019-05-11T17:59:42.106Z,11.95
2019-05-11T18:02:09.620Z,11.94
2019-05-11T18:04:36.841Z,11.92
2019-05-11T18:07:03.954Z,11.95
2019-05-11T18:09:31.053Z,11.97
2019-05-11T18:11:58.651Z,11.97
2019-05-11T18:14:27.984Z,12.02
2019-05-11T18:16:54.974Z,11.95
2019-05-11T18:19:22.416Z,11.84
2019-05-11T18:21:49.883Z,11.77
2019-05-11T18:24:17.891Z,11.75
2019-05-11T18:26:45.188Z,11.76
2019-05-11T18:29:12.705Z,11.76
2019-05-11T18:31:39.911Z,11.73
2019-05-11T18:34:09.016Z,11.72
2019-05-11T18:36:38.225Z,11.65
2019-05-11T18:39:06.713Z,11.61
2019-05-11T18:41:34.414Z,11.59
2019-05-11T18:44:01.903Z,11.57
2019-05-11T18:46:30.431Z,11.54
2019-05-11T18:48:57.656Z,11.61
2019-05-11T18:51:25.670Z,11.58
2019-05-11T18:53:53.208Z,11.58
2019-05-11T18:56:20.332Z,11.62
2019-05-11T18:58:47.842Z,11.60
2019-05-11T19:01:15.190Z,11.66
2019-05-11T19:03:42.266Z,11.59
2019-05-11T19:06:09.392Z,11.65
2019-05-11T19:08:38.492Z,11.57
2019-05-11T19:11:06.020Z,11.56
2019-05-11T19:13:33.412Z,11.54
2019-05-11T19:16:01.577Z,11.53
2019-05-11T19:18:29.709Z,11.46
2019-05-11T19:20:58.601Z,11.45
2019-05-11T19:23:28.591Z,11.44
2019-05-11T19:25:57.826Z,11.44
2019-05-11T19:28:28.801Z,11.49
2019-05-11T19:30:55.920Z,11.41
2019-05-11T19:33:23.285Z,11.37
2019-05-11T19:35:50.804Z,11.34
2019-05-11T19:38:18.968Z,11.37
2019-05-11T19:40:48.429Z,11.33
2019-05-11T19:43:15.570Z,11.26
2019-05-11T19:45:42.722Z,11.25
2019-05-11T19:48:10.651Z,11.23
2019-05-11T19:50:40.969Z,11.10
2019-05-11T19:53:09.400Z,11.02
2019-05-11T19:55:36.594Z,10.97
2019-05-11T19:58:07.011Z,10.99
2019-05-11T20:00:34.797Z,10.90
2019-05-11T20:03:02.097Z,10.81
2019-05-11T20:05:32.391Z,10.88
2019-05-11T20:07:59.426Z,10.80
2019-05-11T20:10:27.758Z,10.70
2019-05-11T20:12:58.531Z,10.61
2019-05-11T20:15:28.256Z,10.60
2019-05-11T20:17:55.441Z,10.60
2019-05-11T20:20:23.037Z,10.58
2019-05-11T20:22:53.640Z,10.49
2019-05-11T20:25:20.896Z,10.48
2019-05-11T20:27:48.842Z,10.48
2019-05-11T20:30:18.272Z,10.43
2019-05-11T20:32:48.542Z,10.42
2019-05-11T20:35:15.703Z,10.32
2019-05-11T20:37:43.661Z,10.37
2019-05-11T20:40:10.811Z,10.44
2019-05-11T20:42:38.225Z,10.39
2019-05-11T20:45:07.599Z,10.38
2019-05-11T20:47:34.338Z,10.35
2019-05-11T20:50:01.516Z,10.42
2019-05-11T20:52:28.620Z,10.40
2019-05-11T20:54:58.212Z,10.42
2019-05-11T20:57:28.341Z,10.36
2019-05-11T20:59:57.565Z,10.28
2019-05-11T21:02:24.909Z,10.30
2019-05-11T21:04:52.029Z,10.32
2019-05-11T21:07:19.964Z,10.31
2019-05-11T21:09:48.376Z,10.20
2019-05-11T21:12:15.611Z,10.20
2019-05-11T21:14:42.752Z,10.20
2019-05-11T21:17:19.573Z,10.11
2019-05-11T21:19:47.874Z,10.09
2019-05-11T21:22:15.091Z,10.06
2019-05-11T21:24:42.187Z,9.96
2019-05-11T21:27:09.504Z,9.84
2019-05-11T21:29:38.740Z,9.80
2019-05-11T21:32:07.976Z,9.78
2019-05-11T21:34:35.314Z,9.72
2019-05-11T21:37:02.667Z,9.67
2019-05-11T21:39:29.728Z,9.61
2019-05-11T21:41:58.297Z,9.56
2019-05-11T21:44:27.715Z,9.43
2019-05-11T21:46:55.064Z,9.35
2019-05-11T21:49:22.161Z,9.22
2019-05-11T21:52:03.348Z,9.22
2019-05-11T21:54:18.573Z,9.13
2019-05-11T21:56:45.750Z,9.03
2019-05-11T21:59:12.845Z,9.00
2019-05-11T22:01:39.982Z,8.90
2019-05-11T22:04:08.452Z,8.93
2019-05-11T22:06:38.478Z,8.89
2019-05-11T22:09:08.051Z,8.83
2019-05-11T22:11:37.906Z,8.84
2019-05-11T22:14:04.382Z,8.85
2019-05-11T22:16:31.855Z,8.82
2019-05-11T22:18:58.918Z,8.87
2019-05-11T22:21:27.990Z,8.87
2019-05-11T22:23:55.063Z,8.92
2019-05-11T22:26:22.195Z,8.89
2019-05-11T22:28:49.362Z,8.90
2019-05-11T22:31:18.301Z,8.87
2019-05-11T22:33:47.914Z,8.98
2019-05-11T22:36:14.865Z,8.97
2019-05-11T22:38:41.950Z,8.93
2019-05-11T22:41:09.216Z,9.04
2019-05-11T22:43:37.875Z,9.04
2019-05-11T22:46:05.146Z,9.07
2019-05-11T22:48:32.234Z,9.08
2019-05-11T22:50:59.392Z,9.28
2019-05-11T22:53:43.236Z,9.32
2019-05-11T22:55:56.158Z,9.30
2019-05-11T22:58:23.286Z,9.31
2019-05-11T23:00:50.393Z,9.39
2019-05-11T23:03:18.867Z,9.33
2019-05-11T23:05:47.735Z,9.31
2019-05-11T23:08:14.999Z,9.27
2019-05-11T23:10:42.067Z,9.34
2019-05-11T23:13:11.241Z,9.31
2019-05-11T23:15:40.469Z,9.26
2019-05-11T23:18:08.559Z,9.34
2019-05-11T23:20:38.088Z,9.35
2019-05-11T23:23:08.455Z,9.39
2019-05-11T23:25:35.048Z,9.50
2019-05-11T23:28:02.142Z,9.51
2019-05-11T23:30:29.691Z,9.57
2019-05-11T23:32:58.696Z,9.53
2019-05-11T23:35:25.858Z,9.56
2019-05-11T23:37:53.296Z,9.59
2019-05-11T23:40:20.921Z,9.55
2019-05-11T23:42:49.053Z,9.53
2019-05-11T23:45:18.830Z,9.54
2019-05-11T23:47:47.788Z,9.57
2019-05-11T23:50:14.752Z,9.55
2019-05-11T23:52:41.919Z,9.61
2019-05-11T23:55:09.245Z,9.72
2019-05-11T23:57:37.946Z,9.65
